Time;durP1;ratioP1;P1;durP2;ratioP2;P2;SDS_P1;SDS_P2;PMS_P1;PMS_P2;Temp;Humidity;BMP_temperature;BMP_pressure;BME280_temperature;BME280_humidity;BME280_pressure;Samples;Min_cycle;Max_cycle;Signal;HPM_P1;HPM_P2
2023/12/27 00:00:12;;;;;;;;;;;;;;;;;;107388;1257;60495;-80
2023/12/27 00:02:58;;;;;;;;;;;;;;;;;;107331;1257;61578;-80
2023/12/27 00:05:24;;;;;;;;;;;;;;;;;;107275;1254;60045;-81
2023/12/27 00:07:51;;;;;;;;;;;;;;;;;;107349;1256;61554;-80
2023/12/27 00:10:17;;;;;;;;;;;;;;;;;;107416;1254;61483;-80
2023/12/27 00:12:44;;;;;;;;;;;;;;;;;;109499;1254;60039;-80
2023/12/27 00:15:10;;;;;;;;;;;;;;;;;;109470;1253;59651;-80
2023/12/27 00:17:36;;;;;;;;;;;;;;;;;;109468;1254;59766;-80
2023/12/27 00:20:03;;;;;;;;;;;;;;;;;;109452;1254;59725;-80
2023/12/27 00:22:29;;;;;;;;;;;;;;;;;;109503;1254;59762;-80
2023/12/27 00:24:55;;;;;;;;;;;;;;;;;;109459;1253;59842;-80
2023/12/27 00:27:22;;;;;;;;;;;;;;;;;;109466;1254;59987;-81
2023/12/27 00:29:48;;;;;;;;;;;;;;;;;;109480;1254;59751;-80
2023/12/27 00:32:15;;;;;;;;;;;;;;;;;;109480;1254;59693;-80
2023/12/27 00:34:41;;;;;;;;;;;;;;;;;;108784;1254;61622;-80
2023/12/27 00:37:09;;;;;;;;;;;;;;;;;;107366;1259;59998;-80
2023/12/27 00:39:35;;;;;;;;;;;;;;;;;;109486;1254;60167;-80
2023/12/27 00:42:01;;;;;;;;;;;;;;;;;;107522;1254;62146;-80
2023/12/27 00:44:28;;;;;;;;;;;;;;;;;;106792;1253;62985;-80
2023/12/27 00:46:54;;;;;;;;;;;;;;;;;;106852;1254;61729;-80
2023/12/27 00:49:21;;;;;;;;;;;;;;;;;;106773;1254;62923;-80
2023/12/27 00:51:48;;;;;;;;;;;;;;;;;;106860;1254;60490;-80
2023/12/27 00:54:14;;;;;;;;;;;;;;;;;;106809;1257;61720;-80
2023/12/27 00:56:41;;;;;;;;;;;;;;;;;;106891;1254;59982;-80
2023/12/27 00:59:07;;;;;;;;;;;;;;;;;;106846;1254;60665;-81
2023/12/27 01:01:33;;;;;;;;;;;;;;;;;;106852;1254;61575;-80
2023/12/27 01:04:00;;;;;;;;;;;;;;;;;;106838;1254;60389;-80
2023/12/27 01:06:26;;;;;;;;;;;;;;;;;;106824;1254;61742;-80
2023/12/27 01:08:52;;;;;;;;;;;;;;;;;;106824;1254;61458;-80
2023/12/27 01:11:19;;;;;;;;;;;;;;;;;;106907;1253;60628;-80
2023/12/27 01:13:46;;;;;;;;;;;;;;;;;;106800;1254;62734;-80
2023/12/27 01:16:14;;;;;;;;;;;;;;;;;;106756;1254;60302;-80
2023/12/27 01:18:40;;;;;;;;;;;;;;;;;;106848;1254;60640;-80
2023/12/27 01:21:06;;;;;;;;;;;;;;;;;;106884;1253;61540;-80
2023/12/27 01:23:33;;;;;;;;;;;;;;;;;;106855;1254;60571;-80
2023/12/27 01:25:59;;;;;;;;;;;;;;;;;;106820;1254;62936;-80
2023/12/27 01:28:26;;;;;;;;;;;;;;;;;;107435;1254;60622;-80
2023/12/27 01:30:52;;;;;;;;;;;;;;;;;;106836;1254;60640;-81
2023/12/27 01:33:18;;;;;;;;;;;;;;;;;;107369;1254;62783;-80
2023/12/27 01:35:45;;;;;;;;;;;;;;;;;;107398;1254;60651;-81
2023/12/27 01:38:11;;;;;;;;;;;;;;;;;;107404;1254;61769;-81
2023/12/27 01:40:38;;;;;;;;;;;;;;;;;;107382;1254;60650;-80
2023/12/27 01:43:04;;;;;;;;;;;;;;;;;;108397;1253;60579;-80
2023/12/27 01:45:30;;;;;;;;;;;;;;;;;;109464;1253;59841;-80
2023/12/27 01:47:57;;;;;;;;;;;;;;;;;;108117;1254;60641;-80
2023/12/27 01:50:23;;;;;;;;;;;;;;;;;;106889;1256;61482;-80
2023/12/27 01:52:49;;;;;;;;;;;;;;;;;;106859;1254;61608;-80
2023/12/27 01:55:16;;;;;;;;;;;;;;;;;;106806;1253;61797;-80
2023/12/27 01:57:42;;;;;;;;;;;;;;;;;;106854;1257;60562;-80
2023/12/27 02:00:12;;;;;;;;;;;;;;;;;;106813;1254;61428;-80
2023/12/27 02:02:38;;;;;;;;;;;;;;;;;;106871;1254;63446;-81
2023/12/27 02:05:04;;;;;;;;;;;;;;;;;;107478;1254;61527;-81
2023/12/27 02:07:31;;;;;;;;;;;;;;;;;;107354;1254;60628;-80
2023/12/27 02:09:57;;;;;;;;;;;;;;;;;;107360;1254;62789;-81
2023/12/27 02:12:23;;;;;;;;;;;;;;;;;;107488;1254;60643;-80
2023/12/27 02:14:50;;;;;;;;;;;;;;;;;;107428;1252;61563;-80
2023/12/27 02:17:16;;;;;;;;;;;;;;;;;;107338;1253;60634;-80
2023/12/27 02:19:43;;;;;;;;;;;;;;;;;;107379;1256;60717;-80
2023/12/27 02:22:09;;;;;;;;;;;;;;;;;;107389;1254;60039;-80
2023/12/27 02:24:36;;;;;;;;;;;;;;;;;;107355;1254;60617;-80
2023/12/27 02:27:03;;;;;;;;;;;;;;;;;;107387;1257;61607;-81
2023/12/27 02:29:29;;;;;;;;;;;;;;;;;;107301;1254;62926;-80
2023/12/27 02:31:55;;;;;;;;;;;;;;;;;;107315;1253;62802;-80
2023/12/27 02:34:22;;;;;;;;;;;;;;;;;;106797;1254;62542;-80
2023/12/27 02:36:49;;;;;;;;;;;;;;;;;;106845;1256;61418;-80
2023/12/27 02:39:15;;;;;;;;;;;;;;;;;;106765;1254;61618;-80
2023/12/27 02:41:41;;;;;;;;;;;;;;;;;;106821;1254;60615;-80
2023/12/27 02:44:08;;;;;;;;;;;;;;;;;;106820;1253;60326;-80
2023/12/27 02:46:34;;;;;;;;;;;;;;;;;;106860;1254;61744;-80
2023/12/27 02:49:01;;;;;;;;;;;;;;;;;;107428;1254;60601;-80
2023/12/27 02:51:27;;;;;;;;;;;;;;;;;;107475;1254;60590;-80
2023/12/27 02:53:53;;;;;;;;;;;;;;;;;;107408;1253;61693;-80
2023/12/27 02:56:20;;;;;;;;;;;;;;;;;;107420;1254;60564;-80
2023/12/27 02:58:46;;;;;;;;;;;;;;;;;;107448;1254;61678;-80
2023/12/27 03:01:12;;;;;;;;;;;;;;;;;;107377;1253;60670;-80
2023/12/27 03:03:39;;;;;;;;;;;;;;;;;;107479;1254;61605;-80
2023/12/27 03:06:05;;;;;;;;;;;;;;;;;;107402;1253;60579;-80
2023/12/27 03:08:33;;;;;;;;;;;;;;;;;;107465;1253;61673;-80
2023/12/27 03:10:59;;;;;;;;;;;;;;;;;;107414;1253;60611;-81
2023/12/27 03:13:25;;;;;;;;;;;;;;;;;;107582;1252;60585;-80
2023/12/27 03:15:52;;;;;;;;;;;;;;;;;;107552;1253;60576;-81
2023/12/27 03:18:18;;;;;;;;;;;;;;;;;;107523;1254;60514;-81
2023/12/27 03:20:45;;;;;;;;;;;;;;;;;;107569;1252;61630;-81
2023/12/27 03:23:11;;;;;;;;;;;;;;;;;;108287;1253;62983;-81
2023/12/27 03:25:37;;;;;;;;;;;;;;;;;;109500;1253;59702;-81
2023/12/27 03:28:04;;;;;;;;;;;;;;;;;;109525;1253;59828;-80
2023/12/27 03:30:30;;;;;;;;;;;;;;;;;;109508;1253;59683;-80
2023/12/27 03:32:57;;;;;;;;;;;;;;;;;;109453;1254;59954;-81
2023/12/27 03:35:23;;;;;;;;;;;;;;;;;;109470;1252;59709;-80
2023/12/27 03:37:49;;;;;;;;;;;;;;;;;;109506;1253;59757;-80
2023/12/27 03:40:16;;;;;;;;;;;;;;;;;;109482;1254;59832;-80
2023/12/27 03:42:43;;;;;;;;;;;;;;;;;;108747;1254;60117;-81
2023/12/27 03:45:09;;;;;;;;;;;;;;;;;;106808;1254;60697;-80
2023/12/27 03:47:35;;;;;;;;;;;;;;;;;;106855;1253;60693;-80
2023/12/27 03:50:02;;;;;;;;;;;;;;;;;;106843;1253;59972;-80
2023/12/27 03:52:29;;;;;;;;;;;;;;;;;;106895;1253;60648;-80
2023/12/27 03:54:55;;;;;;;;;;;;;;;;;;106914;1254;60070;-80
2023/12/27 03:57:23;;;;;;;;;;;;;;;;;;106854;1254;61763;-80
2023/12/27 03:59:49;;;;;;;;;;;;;;;;;;106885;1254;60641;-80
2023/12/27 04:02:16;;;;;;;;;;;;;;;;;;106899;1253;60628;-80
2023/12/27 04:04:42;;;;;;;;;;;;;;;;;;106878;1254;60712;-80
2023/12/27 04:07:08;;;;;;;;;;;;;;;;;;106896;1254;61676;-81
2023/12/27 04:09:35;;;;;;;;;;;;;;;;;;106871;1256;61764;-80
2023/12/27 04:12:01;;;;;;;;;;;;;;;;;;106893;1254;60570;-80
2023/12/27 04:14:27;;;;;;;;;;;;;;;;;;106940;1254;60604;-81
2023/12/27 04:16:54;;;;;;;;;;;;;;;;;;106881;1254;62616;-80
2023/12/27 04:19:20;;;;;;;;;;;;;;;;;;106857;1254;61632;-80
2023/12/27 04:21:47;;;;;;;;;;;;;;;;;;107391;1254;61729;-80
2023/12/27 04:24:13;;;;;;;;;;;;;;;;;;106980;1254;61678;-81
2023/12/27 04:26:40;;;;;;;;;;;;;;;;;;106921;1254;61538;-81
2023/12/27 04:29:06;;;;;;;;;;;;;;;;;;106924;1254;61257;-80
2023/12/27 04:31:33;;;;;;;;;;;;;;;;;;106927;1253;60387;-80
2023/12/27 04:34:00;;;;;;;;;;;;;;;;;;106794;1252;60661;-80
2023/12/27 04:36:26;;;;;;;;;;;;;;;;;;106792;1254;61614;-80
2023/12/27 04:38:53;;;;;;;;;;;;;;;;;;106851;1254;60685;-80
2023/12/27 04:41:19;;;;;;;;;;;;;;;;;;106847;1253;60541;-80
2023/12/27 04:43:45;;;;;;;;;;;;;;;;;;106832;1254;61776;-79
2023/12/27 04:46:12;;;;;;;;;;;;;;;;;;106814;1254;61697;-80
2023/12/27 04:48:39;;;;;;;;;;;;;;;;;;106864;1256;61748;-81
2023/12/27 04:51:05;;;;;;;;;;;;;;;;;;106853;1253;60489;-80
2023/12/27 04:53:32;;;;;;;;;;;;;;;;;;106860;1253;60727;-80
2023/12/27 04:55:58;;;;;;;;;;;;;;;;;;106885;1254;60773;-80
2023/12/27 04:58:25;;;;;;;;;;;;;;;;;;106834;1255;60473;-80
2023/12/27 05:00:51;;;;;;;;;;;;;;;;;;106890;1254;60486;-80
2023/12/27 05:03:18;;;;;;;;;;;;;;;;;;106906;1253;60578;-80
2023/12/27 05:05:44;;;;;;;;;;;;;;;;;;106886;1254;62981;-79
2023/12/27 05:08:10;;;;;;;;;;;;;;;;;;106858;1254;60681;-80
2023/12/27 05:10:37;;;;;;;;;;;;;;;;;;106889;1254;62809;-80
2023/12/27 05:13:03;;;;;;;;;;;;;;;;;;106898;1253;62904;-80
2023/12/27 05:15:30;;;;;;;;;;;;;;;;;;106907;1254;63034;-79
2023/12/27 05:17:56;;;;;;;;;;;;;;;;;;106904;1254;60760;-80
2023/12/27 05:20:22;;;;;;;;;;;;;;;;;;106901;1253;61603;-80
2023/12/27 05:22:49;;;;;;;;;;;;;;;;;;106920;1254;60590;-80
2023/12/27 05:25:15;;;;;;;;;;;;;;;;;;106911;1254;60572;-80
2023/12/27 05:27:41;;;;;;;;;;;;;;;;;;106902;1254;60117;-80
2023/12/27 05:30:09;;;;;;;;;;;;;;;;;;106856;1253;60163;-80
2023/12/27 05:32:36;;;;;;;;;;;;;;;;;;106938;1252;60577;-80
2023/12/27 05:35:03;;;;;;;;;;;;;;;;;;106924;1254;60126;-79
2023/12/27 05:37:29;;;;;;;;;;;;;;;;;;109085;1253;59937;-80
2023/12/27 05:39:55;;;;;;;;;;;;;;;;;;109482;1252;59906;-80
2023/12/27 05:42:23;;;;;;;;;;;;;;;;;;109541;1253;59946;-79
2023/12/27 05:44:49;;;;;;;;;;;;;;;;;;107385;1253;60720;-81
2023/12/27 05:47:15;;;;;;;;;;;;;;;;;;106815;1254;60570;-80
2023/12/27 05:49:42;;;;;;;;;;;;;;;;;;106873;1253;61463;-79
2023/12/27 05:52:08;;;;;;;;;;;;;;;;;;108717;1253;60059;-80
2023/12/27 05:54:35;;;;;;;;;;;;;;;;;;109490;1253;60139;-80
2023/12/27 05:57:01;;;;;;;;;;;;;;;;;;107754;1253;60489;-79
2023/12/27 05:59:27;;;;;;;;;;;;;;;;;;106844;1253;60720;-80
2023/12/27 06:01:54;;;;;;;;;;;;;;;;;;106846;1254;62821;-80
2023/12/27 06:04:21;;;;;;;;;;;;;;;;;;106891;1254;62545;-79
2023/12/27 06:06:49;;;;;;;;;;;;;;;;;;106873;1254;61613;-80
2023/12/27 06:09:15;;;;;;;;;;;;;;;;;;107033;1253;60551;-80
2023/12/27 06:11:41;;;;;;;;;;;;;;;;;;106871;1252;61742;-79
2023/12/27 06:14:08;;;;;;;;;;;;;;;;;;106931;1253;61442;-80
2023/12/27 06:16:34;;;;;;;;;;;;;;;;;;106952;1253;62915;-79
2023/12/27 06:19:01;;;;;;;;;;;;;;;;;;106922;1254;62779;-80
2023/12/27 06:21:27;;;;;;;;;;;;;;;;;;106984;1254;61736;-80
2023/12/27 06:23:54;;;;;;;;;;;;;;;;;;106909;1252;60628;-81
2023/12/27 06:26:21;;;;;;;;;;;;;;;;;;109481;1252;59672;-80
2023/12/27 06:28:48;;;;;;;;;;;;;;;;;;109479;1253;59618;-80
2023/12/27 06:31:14;;;;;;;;;;;;;;;;;;109037;1253;60423;-79
2023/12/27 06:33:40;;;;;;;;;;;;;;;;;;106798;1254;163118;-80
2023/12/27 06:36:07;;;;;;;;;;;;;;;;;;106970;1254;60591;-79
2023/12/27 06:38:33;;;;;;;;;;;;;;;;;;107083;1253;60548;-80
2023/12/27 06:41:03;;;;;;;;;;;;;;;;;;106920;1254;60722;-80
2023/12/27 06:43:29;;;;;;;;;;;;;;;;;;106901;1253;63697;-80
2023/12/27 06:45:56;;;;;;;;;;;;;;;;;;106923;1254;60542;-80
2023/12/27 06:48:22;;;;;;;;;;;;;;;;;;106918;1254;60496;-79
2023/12/27 06:50:48;;;;;;;;;;;;;;;;;;106917;1253;60632;-80
2023/12/27 06:53:15;;;;;;;;;;;;;;;;;;106887;1253;60590;-80
2023/12/27 06:55:41;;;;;;;;;;;;;;;;;;106916;1254;60745;-80
2023/12/27 06:58:07;;;;;;;;;;;;;;;;;;106860;1254;61234;-79
2023/12/27 07:00:35;;;;;;;;;;;;;;;;;;106978;1254;60578;-80
2023/12/27 07:03:01;;;;;;;;;;;;;;;;;;106860;1253;61568;-79
2023/12/27 07:05:28;;;;;;;;;;;;;;;;;;106895;1252;60556;-80
2023/12/27 07:07:55;;;;;;;;;;;;;;;;;;106906;1253;62979;-79
2023/12/27 07:10:21;;;;;;;;;;;;;;;;;;109475;1253;59925;-80
2023/12/27 07:12:47;;;;;;;;;;;;;;;;;;108303;1253;62141;-79
2023/12/27 07:15:14;;;;;;;;;;;;;;;;;;106963;1256;62901;-80
2023/12/27 07:17:40;;;;;;;;;;;;;;;;;;106909;1254;60701;-79
2023/12/27 07:20:08;;;;;;;;;;;;;;;;;;106979;1254;61677;-79
2023/12/27 07:22:35;;;;;;;;;;;;;;;;;;106914;1254;61830;-80
2023/12/27 07:25:01;;;;;;;;;;;;;;;;;;107533;1253;60670;-80
2023/12/27 07:27:28;;;;;;;;;;;;;;;;;;107356;1253;60954;-79
2023/12/27 07:29:55;;;;;;;;;;;;;;;;;;106992;1256;61405;-80
2023/12/27 07:32:21;;;;;;;;;;;;;;;;;;107181;1254;62914;-79
2023/12/27 07:34:48;;;;;;;;;;;;;;;;;;107060;1254;61600;-79
2023/12/27 07:37:14;;;;;;;;;;;;;;;;;;107241;1254;60695;-79
2023/12/27 07:39:40;;;;;;;;;;;;;;;;;;107079;1253;60596;-79
2023/12/27 07:42:07;;;;;;;;;;;;;;;;;;107085;1253;62101;-81
2023/12/27 07:44:33;;;;;;;;;;;;;;;;;;107150;1256;60673;-79
2023/12/27 07:47:00;;;;;;;;;;;;;;;;;;107168;1253;61748;-79
2023/12/27 07:49:26;;;;;;;;;;;;;;;;;;107614;1252;60553;-80
2023/12/27 07:51:52;;;;;;;;;;;;;;;;;;107384;1252;62633;-80
2023/12/27 07:54:19;;;;;;;;;;;;;;;;;;107303;1253;61622;-79
2023/12/27 07:56:45;;;;;;;;;;;;;;;;;;107442;1254;60622;-79
2023/12/27 07:59:11;;;;;;;;;;;;;;;;;;107384;1253;61305;-80
2023/12/27 08:01:38;;;;;;;;;;;;;;;;;;107261;1252;60715;-80
2023/12/27 08:04:04;;;;;;;;;;;;;;;;;;107034;1253;60627;-79
2023/12/27 08:06:30;;;;;;;;;;;;;;;;;;107157;1254;60659;-79
2023/12/27 08:08:57;;;;;;;;;;;;;;;;;;107155;1254;60648;-79
2023/12/27 08:11:23;;;;;;;;;;;;;;;;;;107317;1253;61689;-79
2023/12/27 08:13:50;;;;;;;;;;;;;;;;;;107168;1252;60655;-80
2023/12/27 08:16:16;;;;;;;;;;;;;;;;;;107274;1252;60567;-80
2023/12/27 08:18:42;;;;;;;;;;;;;;;;;;107261;1253;60432;-80
2023/12/27 08:21:09;;;;;;;;;;;;;;;;;;107254;1254;60637;-80
2023/12/27 08:23:38;;;;;;;;;;;;;;;;;;107074;1256;61195;-79
2023/12/27 08:26:06;;;;;;;;;;;;;;;;;;107091;1253;60057;-80
2023/12/27 08:28:33;;;;;;;;;;;;;;;;;;107323;1254;60637;-79
2023/12/27 08:30:59;;;;;;;;;;;;;;;;;;106909;1252;60684;-79
2023/12/27 08:33:28;;;;;;;;;;;;;;;;;;107005;1252;60719;-80
2023/12/27 08:35:54;;;;;;;;;;;;;;;;;;107054;1254;60656;-80
2023/12/27 08:38:23;;;;;;;;;;;;;;;;;;107156;1252;60616;-79
2023/12/27 08:40:49;;;;;;;;;;;;;;;;;;107801;1253;60817;-80
2023/12/27 08:43:16;;;;;;;;;;;;;;;;;;108035;1253;61484;-79
2023/12/27 08:45:42;;;;;;;;;;;;;;;;;;107714;1253;61251;-80
2023/12/27 08:48:09;;;;;;;;;;;;;;;;;;107552;1253;60631;-80
2023/12/27 08:50:36;;;;;;;;;;;;;;;;;;108240;1253;60530;-80
2023/12/27 08:53:02;;;;;;;;;;;;;;;;;;107146;1254;60553;-80
2023/12/27 08:55:29;;;;;;;;;;;;;;;;;;107126;1253;61868;-81
2023/12/27 08:57:55;;;;;;;;;;;;;;;;;;107162;1253;60659;-80
2023/12/27 09:00:22;;;;;;;;;;;;;;;;;;107213;1253;60651;-80
2023/12/27 09:02:48;;;;;;;;;;;;;;;;;;107005;1254;60893;-80
2023/12/27 09:05:15;;;;;;;;;;;;;;;;;;106854;1257;60571;-80
2023/12/27 09:07:41;;;;;;;;;;;;;;;;;;107376;1254;60335;-82
2023/12/27 09:10:08;;;;;;;;;;;;;;;;;;106898;1254;61844;-81
2023/12/27 09:12:34;;;;;;;;;;;;;;;;;;106944;1254;60619;-81
2023/12/27 09:15:01;;;;;;;;;;;;;;;;;;107531;1252;61729;-80
2023/12/27 09:17:27;;;;;;;;;;;;;;;;;;107666;1253;60544;-81
2023/12/27 09:19:54;;;;;;;;;;;;;;;;;;107381;1253;60680;-81
2023/12/27 09:22:20;;;;;;;;;;;;;;;;;;107494;1253;60383;-82
2023/12/27 09:24:46;;;;;;;;;;;;;;;;;;107387;1254;60626;-80
2023/12/27 09:27:17;;;;;;;;;;;;;;;;;;107100;1253;61834;-81
2023/12/27 09:29:44;;;;;;;;;;;;;;;;;;106913;1253;61654;-81
2023/12/27 09:32:10;;;;;;;;;;;;;;;;;;106952;1254;61558;-81
2023/12/27 09:34:37;;;;;;;;;;;;;;;;;;106762;1253;60553;-81
2023/12/27 09:37:03;;;;;;;;;;;;;;;;;;107011;1256;61668;-80
2023/12/27 09:39:29;;;;;;;;;;;;;;;;;;106899;1256;60698;-80
2023/12/27 09:41:56;;;;;;;;;;;;;;;;;;106911;1254;60699;-81
2023/12/27 09:44:23;;;;;;;;;;;;;;;;;;106897;1252;62952;-82
2023/12/27 09:46:49;;;;;;;;;;;;;;;;;;106960;1254;61293;-81
2023/12/27 09:49:16;;;;;;;;;;;;;;;;;;106932;1253;62374;-81
2023/12/27 09:51:42;;;;;;;;;;;;;;;;;;106873;1252;62431;-80
2023/12/27 09:54:08;;;;;;;;;;;;;;;;;;106848;1253;61363;-81
2023/12/27 09:56:35;;;;;;;;;;;;;;;;;;107087;1254;60179;-81
2023/12/27 09:59:02;;;;;;;;;;;;;;;;;;107058;1253;63418;-82
2023/12/27 10:01:28;;;;;;;;;;;;;;;;;;107450;1253;60537;-81
2023/12/27 10:03:55;;;;;;;;;;;;;;;;;;107202;1253;61748;-82
2023/12/27 10:06:21;;;;;;;;;;;;;;;;;;106830;1253;60687;-81
2023/12/27 10:08:48;;;;;;;;;;;;;;;;;;107531;1253;59994;-81
2023/12/27 10:11:16;;;;;;;;;;;;;;;;;;107589;1254;60720;-81
2023/12/27 10:13:43;;;;;;;;;;;;;;;;;;107632;1253;61716;-81
2023/12/27 10:16:09;;;;;;;;;;;;;;;;;;107742;1256;60494;-81
2023/12/27 10:18:36;;;;;;;;;;;;;;;;;;107655;1254;61724;-81
2023/12/27 10:21:04;;;;;;;;;;;;;;;;;;107613;1254;60569;-81
2023/12/27 10:23:30;;;;;;;;;;;;;;;;;;107513;1252;62945;-81
2023/12/27 10:25:56;;;;;;;;;;;;;;;;;;107602;1253;61872;-82
2023/12/27 10:28:24;;;;;;;;;;;;;;;;;;107792;1256;60547;-82
2023/12/27 10:30:50;;;;;;;;;;;;;;;;;;107634;1254;61642;-81
2023/12/27 10:33:17;;;;;;;;;;;;;;;;;;107196;1252;60588;-80
2023/12/27 10:35:44;;;;;;;;;;;;;;;;;;107082;1253;62762;-80
2023/12/27 10:38:10;;;;;;;;;;;;;;;;;;107287;1254;61666;-80
2023/12/27 10:40:39;;;;;;;;;;;;;;;;;;107128;1253;61447;-81
2023/12/27 10:43:06;;;;;;;;;;;;;;;;;;107075;1254;60198;-82
2023/12/27 10:45:32;;;;;;;;;;;;;;;;;;107066;1253;60621;-81
2023/12/27 10:48:01;;;;;;;;;;;;;;;;;;107263;1254;60492;-83
2023/12/27 10:50:28;;;;;;;;;;;;;;;;;;107622;1253;60569;-80
2023/12/27 10:52:55;;;;;;;;;;;;;;;;;;107544;1254;60590;-80
2023/12/27 10:55:22;;;;;;;;;;;;;;;;;;107549;1252;62559;-81
2023/12/27 10:57:48;;;;;;;;;;;;;;;;;;107696;1252;60514;-81
2023/12/27 11:00:14;;;;;;;;;;;;;;;;;;107587;1254;59962;-80
2023/12/27 11:02:41;;;;;;;;;;;;;;;;;;107586;1253;60483;-80
2023/12/27 11:05:07;;;;;;;;;;;;;;;;;;107609;1254;61207;-81
2023/12/27 11:07:36;;;;;;;;;;;;;;;;;;107675;1253;61837;-80
2023/12/27 11:10:05;;;;;;;;;;;;;;;;;;107463;1254;60578;-81
2023/12/27 11:12:32;;;;;;;;;;;;;;;;;;107474;1252;62473;-82
2023/12/27 11:14:58;;;;;;;;;;;;;;;;;;107295;1253;60722;-81
2023/12/27 11:17:26;;;;;;;;;;;;;;;;;;107500;1254;60343;-80
2023/12/27 11:19:52;;;;;;;;;;;;;;;;;;106959;1253;61665;-80
2023/12/27 11:22:19;;;;;;;;;;;;;;;;;;106982;1254;60080;-80
2023/12/27 11:24:45;;;;;;;;;;;;;;;;;;107438;1251;60546;-80
2023/12/27 11:27:12;;;;;;;;;;;;;;;;;;107041;1253;60068;-81
2023/12/27 11:29:38;;;;;;;;;;;;;;;;;;106751;1253;60490;-81
2023/12/27 11:32:04;;;;;;;;;;;;;;;;;;106793;1254;60587;-80
2023/12/27 11:34:31;;;;;;;;;;;;;;;;;;106815;1256;60626;-81
2023/12/27 11:36:58;;;;;;;;;;;;;;;;;;106760;1254;62483;-80
2023/12/27 11:39:28;;;;;;;;;;;;;;;;;;106852;1254;60756;-81
2023/12/27 11:41:54;;;;;;;;;;;;;;;;;;106813;1254;60823;-81
2023/12/27 11:44:20;;;;;;;;;;;;;;;;;;107281;1253;61515;-79
2023/12/27 11:46:47;;;;;;;;;;;;;;;;;;107461;1253;60030;-81
2023/12/27 11:49:13;;;;;;;;;;;;;;;;;;106938;1253;62807;-80
2023/12/27 11:51:40;;;;;;;;;;;;;;;;;;106972;1253;60662;-81
2023/12/27 11:54:07;;;;;;;;;;;;;;;;;;107209;1254;60642;-81
2023/12/27 11:56:34;;;;;;;;;;;;;;;;;;107374;1254;60655;-81
2023/12/27 11:59:01;;;;;;;;;;;;;;;;;;106895;1253;62120;-81
2023/12/27 12:01:27;;;;;;;;;;;;;;;;;;106963;1254;62745;-81
2023/12/27 12:03:54;;;;;;;;;;;;;;;;;;106829;1253;61571;-81
2023/12/27 12:06:20;;;;;;;;;;;;;;;;;;106981;1253;60648;-81
2023/12/27 12:08:46;;;;;;;;;;;;;;;;;;107089;1253;60160;-80
2023/12/27 12:11:13;;;;;;;;;;;;;;;;;;107497;1253;61624;-80
2023/12/27 12:13:39;;;;;;;;;;;;;;;;;;107440;1253;62601;-81
2023/12/27 12:16:05;;;;;;;;;;;;;;;;;;107471;1253;60625;-80
2023/12/27 12:18:32;;;;;;;;;;;;;;;;;;107411;1253;61716;-81
2023/12/27 12:20:58;;;;;;;;;;;;;;;;;;107434;1254;60495;-81
2023/12/27 12:23:25;;;;;;;;;;;;;;;;;;107341;1256;60560;-80
2023/12/27 12:25:51;;;;;;;;;;;;;;;;;;107283;1253;60654;-81
2023/12/27 12:28:17;;;;;;;;;;;;;;;;;;107393;1253;62648;-80
2023/12/27 12:30:44;;;;;;;;;;;;;;;;;;107217;1252;60541;-80
2023/12/27 12:33:10;;;;;;;;;;;;;;;;;;107305;1254;60506;-80
2023/12/27 12:35:37;;;;;;;;;;;;;;;;;;107207;1253;61772;-80
2023/12/27 12:38:03;;;;;;;;;;;;;;;;;;107611;1256;60039;-80
2023/12/27 12:40:30;;;;;;;;;;;;;;;;;;107210;1253;60062;-81
2023/12/27 12:42:56;;;;;;;;;;;;;;;;;;107282;1254;61884;-80
2023/12/27 12:45:23;;;;;;;;;;;;;;;;;;107219;1254;62008;-80
2023/12/27 12:47:49;;;;;;;;;;;;;;;;;;107619;1254;61944;-80
2023/12/27 12:50:15;;;;;;;;;;;;;;;;;;107262;1253;60406;-81
2023/12/27 12:52:42;;;;;;;;;;;;;;;;;;107299;1254;60873;-80
2023/12/27 12:55:08;;;;;;;;;;;;;;;;;;106684;1253;61261;-80
2023/12/27 12:57:35;;;;;;;;;;;;;;;;;;106845;1253;61523;-81
2023/12/27 13:00:01;;;;;;;;;;;;;;;;;;106859;1254;60683;-81
2023/12/27 13:02:28;;;;;;;;;;;;;;;;;;106751;1254;60785;-81
2023/12/27 13:04:54;;;;;;;;;;;;;;;;;;106744;1256;62600;-80
2023/12/27 13:07:20;;;;;;;;;;;;;;;;;;106950;1254;61740;-81
2023/12/27 13:09:47;;;;;;;;;;;;;;;;;;106707;1253;60690;-80
2023/12/27 13:12:13;;;;;;;;;;;;;;;;;;107136;1254;60636;-81
2023/12/27 13:14:40;;;;;;;;;;;;;;;;;;106922;1254;60578;-81
2023/12/27 13:17:06;;;;;;;;;;;;;;;;;;106933;1254;60715;-81
2023/12/27 13:19:33;;;;;;;;;;;;;;;;;;106853;1253;61568;-81
2023/12/27 13:21:59;;;;;;;;;;;;;;;;;;106849;1253;61715;-80
2023/12/27 13:24:26;;;;;;;;;;;;;;;;;;106772;1253;60728;-80
2023/12/27 13:26:53;;;;;;;;;;;;;;;;;;106853;1254;60695;-80
2023/12/27 13:29:19;;;;;;;;;;;;;;;;;;106827;1254;62907;-80
2023/12/27 13:31:46;;;;;;;;;;;;;;;;;;106960;1254;60540;-81
2023/12/27 13:34:12;;;;;;;;;;;;;;;;;;106872;1254;60656;-80
2023/12/27 13:36:38;;;;;;;;;;;;;;;;;;106809;1253;60951;-80
2023/12/27 13:39:05;;;;;;;;;;;;;;;;;;107393;1254;60648;-81
2023/12/27 13:41:32;;;;;;;;;;;;;;;;;;107405;1254;61465;-80
2023/12/27 13:43:58;;;;;;;;;;;;;;;;;;107254;1254;60547;-80
2023/12/27 13:46:26;;;;;;;;;;;;;;;;;;107412;1251;60612;-80
2023/12/27 13:48:53;;;;;;;;;;;;;;;;;;107435;1253;61664;-81
2023/12/27 13:51:19;;;;;;;;;;;;;;;;;;107208;1256;60630;-80
2023/12/27 13:53:46;;;;;;;;;;;;;;;;;;107170;1253;60666;-81
2023/12/27 13:56:14;;;;;;;;;;;;;;;;;;107333;1253;60772;-81
2023/12/27 13:58:42;;;;;;;;;;;;;;;;;;107340;1254;60581;-81
2023/12/27 14:01:08;;;;;;;;;;;;;;;;;;107143;1253;60049;-81
2023/12/27 14:03:35;;;;;;;;;;;;;;;;;;106659;1254;61276;-80
2023/12/27 14:06:02;;;;;;;;;;;;;;;;;;106774;1254;61539;-81
2023/12/27 14:08:28;;;;;;;;;;;;;;;;;;106914;1253;61736;-80
2023/12/27 14:10:54;;;;;;;;;;;;;;;;;;106735;1254;61665;-81
2023/12/27 14:13:21;;;;;;;;;;;;;;;;;;106754;1254;61735;-80
2023/12/27 14:15:47;;;;;;;;;;;;;;;;;;106785;1256;60654;-81
2023/12/27 14:18:14;;;;;;;;;;;;;;;;;;106958;1254;60617;-82
2023/12/27 14:20:41;;;;;;;;;;;;;;;;;;106797;1253;60600;-82
2023/12/27 14:23:08;;;;;;;;;;;;;;;;;;106765;1253;61886;-80
2023/12/27 14:25:35;;;;;;;;;;;;;;;;;;106729;1256;60573;-81
2023/12/27 14:28:02;;;;;;;;;;;;;;;;;;107095;1254;62923;-80
2023/12/27 14:30:31;;;;;;;;;;;;;;;;;;106777;1253;61248;-80
2023/12/27 14:32:57;;;;;;;;;;;;;;;;;;106835;1254;60644;-80
2023/12/27 14:35:24;;;;;;;;;;;;;;;;;;106682;1254;60586;-80
2023/12/27 14:37:50;;;;;;;;;;;;;;;;;;106998;1256;62379;-80
2023/12/27 14:40:16;;;;;;;;;;;;;;;;;;106790;1252;61777;-80
2023/12/27 14:42:43;;;;;;;;;;;;;;;;;;106862;1254;62395;-81
2023/12/27 14:45:09;;;;;;;;;;;;;;;;;;106893;1254;60648;-80
2023/12/27 14:47:35;;;;;;;;;;;;;;;;;;107043;1254;62577;-80
2023/12/27 14:50:02;;;;;;;;;;;;;;;;;;106952;1254;61622;-81
2023/12/27 14:52:29;;;;;;;;;;;;;;;;;;106951;1254;61527;-80
2023/12/27 14:54:55;;;;;;;;;;;;;;;;;;106896;1254;60701;-80
2023/12/27 14:57:22;;;;;;;;;;;;;;;;;;107699;1254;60665;-80
2023/12/27 14:59:49;;;;;;;;;;;;;;;;;;107650;1253;61104;-81
2023/12/27 15:02:15;;;;;;;;;;;;;;;;;;107470;1254;60068;-80
2023/12/27 15:04:42;;;;;;;;;;;;;;;;;;107483;1253;60712;-82
2023/12/27 15:07:08;;;;;;;;;;;;;;;;;;107438;1254;60147;-81
2023/12/27 15:09:36;;;;;;;;;;;;;;;;;;107172;1253;60642;-80
2023/12/27 15:12:02;;;;;;;;;;;;;;;;;;106788;1252;60623;-80
2023/12/27 15:14:29;;;;;;;;;;;;;;;;;;106786;1254;60683;-80
2023/12/27 15:16:55;;;;;;;;;;;;;;;;;;106873;1254;60537;-80
2023/12/27 15:19:21;;;;;;;;;;;;;;;;;;106832;1254;60583;-80
2023/12/27 15:21:48;;;;;;;;;;;;;;;;;;106735;1254;60629;-80
2023/12/27 15:24:14;;;;;;;;;;;;;;;;;;106706;1254;62606;-80
2023/12/27 15:26:40;;;;;;;;;;;;;;;;;;106606;1254;60625;-80
2023/12/27 15:29:07;;;;;;;;;;;;;;;;;;106954;1254;62791;-79
2023/12/27 15:31:33;;;;;;;;;;;;;;;;;;106942;1254;61603;-80
2023/12/27 15:34:00;;;;;;;;;;;;;;;;;;106959;1254;61733;-80
2023/12/27 15:36:26;;;;;;;;;;;;;;;;;;107004;1254;62469;-81
2023/12/27 15:38:55;;;;;;;;;;;;;;;;;;107019;1254;60144;-81
2023/12/27 15:41:24;;;;;;;;;;;;;;;;;;106913;1254;61193;-80
2023/12/27 15:43:50;;;;;;;;;;;;;;;;;;106864;1254;61588;-80
2023/12/27 15:46:17;;;;;;;;;;;;;;;;;;106830;1254;60493;-80
2023/12/27 15:48:44;;;;;;;;;;;;;;;;;;106720;1254;62809;-80
2023/12/27 15:51:10;;;;;;;;;;;;;;;;;;106608;1254;60545;-80
2023/12/27 15:53:37;;;;;;;;;;;;;;;;;;106558;1256;62494;-80
2023/12/27 15:56:03;;;;;;;;;;;;;;;;;;106731;1256;60576;-80
2023/12/27 15:58:30;;;;;;;;;;;;;;;;;;106643;1256;62829;-80
2023/12/27 16:00:56;;;;;;;;;;;;;;;;;;106584;1254;62930;-80
2023/12/27 16:03:22;;;;;;;;;;;;;;;;;;106613;1254;61724;-79
2023/12/27 16:05:49;;;;;;;;;;;;;;;;;;106662;1254;62914;-80
2023/12/27 16:08:15;;;;;;;;;;;;;;;;;;106666;1256;61481;-80
2023/12/27 16:10:41;;;;;;;;;;;;;;;;;;106634;1253;61731;-79
2023/12/27 16:13:10;;;;;;;;;;;;;;;;;;106650;1252;60644;-80
2023/12/27 16:15:37;;;;;;;;;;;;;;;;;;106724;1256;60624;-80
2023/12/27 16:18:03;;;;;;;;;;;;;;;;;;106689;1256;62831;-80
2023/12/27 16:20:30;;;;;;;;;;;;;;;;;;106661;1253;62748;-81
2023/12/27 16:22:56;;;;;;;;;;;;;;;;;;106691;1254;60717;-81